createdAt,value
2023-10-11T00:00:59.938Z,4.13
2023-10-11T00:06:07.464Z,4.20
2023-10-11T00:11:11.278Z,4.10
2023-10-11T00:16:18.143Z,4.68
2023-10-11T00:21:36.683Z,4.75
2023-10-11T00:26:41.527Z,3.90
2023-10-11T00:31:46.752Z,4.10
2023-10-11T00:36:51.270Z,4.25
2023-10-11T00:41:55.075Z,4.18
2023-10-11T00:47:01.422Z,4.90
2023-10-11T00:52:08.170Z,4.82
2023-10-11T00:57:13.179Z,5.18
2023-10-11T01:02:16.998Z,5.03
2023-10-11T01:07:22.146Z,5.18
2023-10-11T01:12:25.164Z,5.20
2023-10-11T01:17:32.895Z,5.47
2023-10-11T01:22:37.704Z,5.18
2023-10-11T01:27:41.531Z,5.43
2023-10-11T01:32:44.585Z,4.60
2023-10-11T01:37:49.967Z,6.10
2023-10-11T01:42:53.216Z,5.03
2023-10-11T01:47:58.055Z,5.25
2023-10-11T01:53:04.855Z,4.50
2023-10-11T01:58:13.961Z,5.53
2023-10-11T02:03:17.388Z,4.57
2023-10-11T02:08:22.017Z,5.68
2023-10-11T02:13:25.096Z,5.53
2023-10-11T02:18:28.332Z,5.93
2023-10-11T02:23:38.849Z,5.38
2023-10-11T02:28:42.277Z,5.65
2023-10-11T02:33:45.488Z,5.88
2023-10-11T02:38:52.320Z,6.43
2023-10-11T02:43:59.008Z,5.90
2023-10-11T02:49:07.287Z,5.45
2023-10-11T02:54:15.819Z,5.50
2023-10-11T02:59:24.133Z,5.63
2023-10-11T03:04:30.456Z,6.07
2023-10-11T03:09:37.172Z,6.30
2023-10-11T03:14:43.281Z,6.47
2023-10-11T03:19:46.599Z,6.20
2023-10-11T03:25:01.433Z,5.72
2023-10-11T03:30:13.016Z,6.50
2023-10-11T03:35:20.518Z,6.25
2023-10-11T03:40:35.449Z,6.55
2023-10-11T03:45:38.734Z,5.75
2023-10-11T03:50:49.134Z,6.60
2023-10-11T03:55:54.713Z,6.70
2023-10-11T04:01:02.242Z,6.18
2023-10-11T04:06:15.445Z,6.38
2023-10-11T04:11:20.715Z,6.22
2023-10-11T04:16:24.910Z,6.13
2023-10-11T04:21:39.444Z,6.53
2023-10-11T04:26:52.687Z,6.32
2023-10-11T04:32:11.283Z,5.50
2023-10-11T04:37:20.306Z,6.07
2023-10-11T04:42:29.167Z,6.68
2023-10-11T04:47:51.919Z,5.80
2023-10-11T04:52:57.669Z,6.30
2023-10-11T04:58:08.401Z,6.67
2023-10-11T05:03:11.919Z,6.70
2023-10-11T05:08:22.376Z,6.57
2023-10-11T05:13:37.615Z,6.38
2023-10-11T05:18:40.651Z,6.70
2023-10-11T05:23:53.893Z,6.65
2023-10-11T05:29:10.677Z,6.93
2023-10-11T05:34:47.801Z,7.07
2023-10-11T05:40:08.416Z,7.20
2023-10-11T05:45:30.556Z,6.57
2023-10-11T05:50:51.422Z,7.55
2023-10-11T05:55:55.185Z,7.07
2023-10-11T06:01:00.470Z,7.00
2023-10-11T06:06:12.440Z,6.65
2023-10-11T06:11:16.724Z,6.95
2023-10-11T06:16:38.284Z,7.25
2023-10-11T06:21:57.628Z,6.85
2023-10-11T06:27:33.844Z,6.93
2023-10-11T06:32:38.349Z,7.95
2023-10-11T06:37:41.507Z,7.25
2023-10-11T06:42:44.863Z,7.65
2023-10-11T06:47:51.746Z,7.45
2023-10-11T06:52:55.184Z,7.75
2023-10-11T06:57:58.628Z,7.43
2023-10-11T07:03:23.568Z,7.57
2023-10-11T07:08:34.143Z,7.57
2023-10-11T07:13:51.247Z,7.50
2023-10-11T07:18:58.350Z,8.05
2023-10-11T07:24:21.092Z,8.07
2023-10-11T07:29:25.226Z,8.05
2023-10-11T07:34:30.821Z,7.65
2023-10-11T07:39:36.266Z,8.27
2023-10-11T07:44:41.349Z,9.27
2023-10-11T07:49:46.519Z,9.27
2023-10-11T07:54:53.085Z,9.05
2023-10-11T07:59:56.257Z,8.10
2023-10-11T08:05:02.052Z,9.38
2023-10-11T08:10:25.328Z,9.43
2023-10-11T08:15:28.886Z,10.45
2023-10-11T08:20:35.439Z,11.00
2023-10-11T08:25:41.034Z,11.55
2023-10-11T08:30:47.864Z,11.45
2023-10-11T08:35:54.526Z,11.70
2023-10-11T08:41:00.269Z,11.45
2023-10-11T08:46:07.288Z,11.50
2023-10-11T08:51:15.964Z,12.75
2023-10-11T08:56:19.170Z,14.35
2023-10-11T09:01:25.949Z,12.95
2023-10-11T09:06:33.197Z,13.07
2023-10-11T09:11:36.486Z,12.65
2023-10-11T09:16:39.766Z,12.48
2023-10-11T09:21:44.302Z,12.88
2023-10-11T09:26:51.797Z,12.60
2023-10-11T09:32:00.024Z,12.15
2023-10-11T09:37:05.078Z,13.18
2023-10-11T09:42:12.776Z,12.02
2023-10-11T09:47:18.768Z,12.43
2023-10-11T09:52:25.988Z,11.35
2023-10-11T09:57:36.037Z,12.52
2023-10-11T10:02:46.217Z,12.90
2023-10-11T10:07:53.617Z,12.45
2023-10-11T10:13:01.086Z,11.60
2023-10-11T10:18:21.774Z,12.40
2023-10-11T10:23:31.002Z,11.32
2023-10-11T10:28:53.659Z,10.40
2023-10-11T10:34:26.221Z,10.27
2023-10-11T10:39:47.951Z,9.57
2023-10-11T10:44:55.413Z,9.18
2023-10-11T10:50:04.867Z,8.30
2023-10-11T10:55:10.468Z,8.25
2023-10-11T11:00:24.309Z,8.32
2023-10-11T11:05:32.737Z,8.23
2023-10-11T11:10:38.944Z,7.45
2023-10-11T11:15:45.604Z,7.88
2023-10-11T11:20:52.689Z,8.32
2023-10-11T11:25:59.697Z,7.45
2023-10-11T11:31:11.266Z,6.75
2023-10-11T11:36:34.798Z,6.47
2023-10-11T11:41:40.664Z,6.47
2023-10-11T11:46:43.815Z,7.13
2023-10-11T11:51:47.189Z,7.65
2023-10-11T11:56:55.880Z,7.78
2023-10-11T12:02:01.049Z,8.38
2023-10-11T12:07:06.857Z,9.40
2023-10-11T12:12:12.336Z,9.00
2023-10-11T12:17:15.622Z,8.43
2023-10-11T12:22:23.480Z,8.07
2023-10-11T12:27:28.424Z,7.68
2023-10-11T12:32:34.804Z,7.45
2023-10-11T12:37:41.414Z,7.45
2023-10-11T12:42:47.380Z,7.45
2023-10-11T12:47:50.543Z,7.25
2023-10-11T12:52:55.461Z,7.57
2023-10-11T12:58:00.238Z,8.18
2023-10-11T13:03:17.275Z,8.38
2023-10-11T13:08:25.617Z,7.20
2023-10-11T13:13:30.161Z,8.02
2023-10-11T13:18:38.842Z,8.65
2023-10-11T13:23:44.964Z,8.60
2023-10-11T13:28:50.038Z,8.75
2023-10-11T13:33:54.833Z,8.68
2023-10-11T13:38:58.054Z,8.65
2023-10-11T13:44:04.564Z,9.00
2023-10-11T13:49:25.780Z,9.55
2023-10-11T13:54:37.714Z,10.98
2023-10-11T13:59:47.443Z,11.45
2023-10-11T14:04:57.956Z,11.60
2023-10-11T14:10:02.300Z,11.55
2023-10-11T14:15:09.517Z,11.18
2023-10-11T14:20:21.129Z,10.60
2023-10-11T14:25:25.860Z,11.70
2023-10-11T14:30:30.758Z,9.95
2023-10-11T14:35:38.871Z,9.98
2023-10-11T14:40:47.963Z,10.38
2023-10-11T14:45:52.710Z,10.43
2023-10-11T14:50:56.176Z,9.20
2023-10-11T14:56:04.802Z,8.13
2023-10-11T15:01:09.768Z,8.45
2023-10-11T15:06:13.915Z,7.40
2023-10-11T15:11:25.183Z,7.30
2023-10-11T15:16:29.886Z,6.90
2023-10-11T15:21:36.166Z,7.43
2023-10-11T15:26:39.610Z,7.32
2023-10-11T15:31:44.230Z,7.15
2023-10-11T15:36:47.524Z,7.28
2023-10-11T15:41:53.485Z,6.70
2023-10-11T15:46:59.008Z,6.40
2023-10-11T15:52:02.536Z,6.80
2023-10-11T15:57:06.280Z,6.93
2023-10-11T16:02:13.333Z,6.88
2023-10-11T16:07:18.317Z,6.93
2023-10-11T16:12:21.558Z,6.20
2023-10-11T16:17:26.157Z,6.53
2023-10-11T16:22:29.252Z,5.78
2023-10-11T16:27:35.610Z,6.63
2023-10-11T16:32:40.383Z,5.57
2023-10-11T16:37:44.859Z,5.47
2023-10-11T16:42:49.377Z,5.45
2023-10-11T16:47:53.911Z,4.70
2023-10-11T16:52:57.132Z,4.95
2023-10-11T16:58:00.900Z,4.90
2023-10-11T17:03:07.922Z,4.22
2023-10-11T17:08:13.524Z,5.03
2023-10-11T17:13:17.274Z,4.47
2023-10-11T17:18:22.040Z,3.50
2023-10-11T17:23:26.878Z,4.60
2023-10-11T17:28:30.116Z,3.90
2023-10-11T17:33:36.480Z,4.13
2023-10-11T17:38:40.874Z,3.80
2023-10-11T17:43:44.241Z,4.40
2023-10-11T17:48:49.522Z,4.35
2023-10-11T17:53:52.592Z,3.80
2023-10-11T17:59:02.777Z,3.80
2023-10-11T18:04:08.051Z,3.72
2023-10-11T18:09:13.916Z,3.70
2023-10-11T18:14:17.208Z,3.83
2023-10-11T18:19:21.997Z,3.38
2023-10-11T18:24:25.602Z,3.35
2023-10-11T18:29:29.188Z,3.65
2023-10-11T18:34:34.397Z,4.15
2023-10-11T18:39:37.619Z,4.18
2023-10-11T18:44:51.722Z,3.35
2023-10-11T18:49:57.989Z,3.45
2023-10-11T18:55:01.567Z,3.75
2023-10-11T19:00:12.596Z,3.63
2023-10-11T19:05:21.251Z,3.17
2023-10-11T19:10:26.985Z,3.72
2023-10-11T19:15:30.934Z,3.22
2023-10-11T19:20:36.315Z,3.97
2023-10-11T19:25:39.678Z,3.85
2023-10-11T19:30:44.436Z,3.22
2023-10-11T19:35:49.016Z,3.50
2023-10-11T19:40:52.547Z,4.35
2023-10-11T19:45:55.821Z,3.92
2023-10-11T19:51:05.923Z,4.30
2023-10-11T19:56:25.074Z,4.10
2023-10-11T20:01:37.553Z,4.10
2023-10-11T20:06:42.550Z,4.50
2023-10-11T20:11:46.006Z,4.32
2023-10-11T20:16:49.193Z,4.53
2023-10-11T20:21:53.838Z,4.25
2023-10-11T20:26:57.746Z,4.38
2023-10-11T20:32:01.278Z,5.00
2023-10-11T20:37:06.036Z,5.22
2023-10-11T20:42:10.676Z,4.90
2023-10-11T20:47:14.128Z,4.95
2023-10-11T20:52:19.712Z,5.03
2023-10-11T20:57:24.524Z,4.88
2023-10-11T21:02:28.857Z,5.07
2023-10-11T21:07:33.586Z,4.65
2023-10-11T21:12:37.135Z,4.72
2023-10-11T21:17:44.403Z,5.65
2023-10-11T21:22:49.399Z,5.10
2023-10-11T21:27:54.110Z,5.32
2023-10-11T21:32:58.558Z,4.88
2023-10-11T21:38:04.042Z,4.97
2023-10-11T21:43:13.285Z,5.50
2023-10-11T21:48:18.163Z,5.00
2023-10-11T21:53:23.373Z,5.00
2023-10-11T21:58:31.178Z,4.70
2023-10-11T22:03:34.546Z,6.35
2023-10-11T22:08:39.126Z,5.32
2023-10-11T22:13:42.596Z,6.15
2023-10-11T22:18:45.694Z,5.13
2023-10-11T22:23:50.478Z,5.45
2023-10-11T22:28:53.735Z,6.30
2023-10-11T22:33:56.939Z,5.90
2023-10-11T22:39:02.324Z,6.38
2023-10-11T22:44:05.642Z,6.18
2023-10-11T22:49:08.881Z,5.93
2023-10-11T22:54:14.568Z,6.47
2023-10-11T22:59:18.526Z,5.80
2023-10-11T23:04:21.920Z,6.80
2023-10-11T23:09:29.491Z,5.75
2023-10-11T23:14:33.070Z,7.07
2023-10-11T23:19:42.734Z,6.47
2023-10-11T23:24:47.316Z,7.43
2023-10-11T23:29:50.351Z,7.13
2023-10-11T23:34:54.552Z,7.30
2023-10-11T23:40:22.224Z,7.85
2023-10-11T23:45:33.337Z,7.70
2023-10-11T23:50:38.858Z,7.82
2023-10-11T23:55:43.624Z,8.23
